Terminal Aerodrome Forecast
Issued by NWS

Home | Current Version | Previous Version | Text Only | Print | Product List | Glossary On
Versions: 1 2 3 4 5 6 7 8 9 10 11 12
000
FTUS44 KJAN 181700
TAFHKS
TAF
KHKS 181720Z 1818/1918 06005KT P6SM BKN040 OVC060
     FM182300 05004KT P6SM BKN100
     FM190900 05004KT P6SM OVC025
     FM191400 05006KT P6SM -RA OVC015=

USA.gov is the U.S. government's official web portal to all federal, state and local government web resources and services.